createdAt,value
2018-04-29T00:01:13.463Z,11.64
2018-04-29T00:03:45.185Z,11.58
2018-04-29T00:06:13.835Z,11.52
2018-04-29T00:08:45.612Z,11.49
2018-04-29T00:11:14.632Z,11.43
2018-04-29T00:13:43.259Z,11.38
2018-04-29T00:16:11.901Z,11.34
2018-04-29T00:18:40.539Z,11.31
2018-04-29T00:21:11.451Z,12.11
2018-04-29T00:23:40.445Z,11.51
2018-04-29T00:26:09.097Z,11.37
2018-04-29T00:28:37.737Z,11.30
2018-04-29T00:31:06.357Z,11.25
2018-04-29T00:33:35.889Z,11.16
2018-04-29T00:36:07.740Z,11.09
2018-04-29T00:38:38.382Z,11.07
2018-04-29T00:41:07.188Z,11.07
2018-04-29T00:43:36.985Z,11.08
2018-04-29T00:46:08.426Z,11.02
2018-04-29T00:48:40.881Z,10.99
2018-04-29T00:51:10.499Z,10.96
2018-04-29T00:53:49.279Z,10.92
2018-04-29T00:56:17.939Z,10.93
2018-04-29T00:58:47.511Z,10.95
2018-04-29T01:01:17.113Z,10.98
2018-04-29T01:03:45.749Z,10.99
2018-04-29T01:06:14.409Z,11.01
2018-04-29T01:08:43.053Z,11.03
2018-04-29T01:11:12.367Z,11.92
2018-04-29T01:13:42.724Z,11.41
2018-04-29T01:16:11.380Z,11.32
2018-04-29T01:18:40.472Z,11.29
2018-04-29T01:21:11.775Z,11.23
2018-04-29T01:23:42.841Z,11.19
2018-04-29T01:26:11.484Z,11.21
2018-04-29T01:28:40.106Z,12.10
2018-04-29T01:31:08.763Z,12.37
2018-04-29T01:33:38.450Z,11.84
2018-04-29T01:36:07.099Z,11.76
2018-04-29T01:38:35.732Z,11.73
2018-04-29T01:41:04.383Z,11.69
2018-04-29T01:43:33.902Z,12.51
2018-04-29T01:46:13.641Z,11.93
2018-04-29T01:48:42.649Z,12.64
2018-04-29T01:51:11.267Z,12.10
2018-04-29T01:53:39.926Z,12.00
2018-04-29T01:56:08.562Z,11.98
2018-04-29T01:58:37.420Z,12.77
2018-04-29T02:01:06.033Z,12.22
2018-04-29T02:03:35.594Z,12.10
2018-04-29T02:06:04.205Z,11.99
2018-04-29T02:08:34.886Z,12.76
2018-04-29T02:11:03.984Z,12.11
2018-04-29T02:13:32.623Z,11.94
2018-04-29T02:16:03.413Z,11.85
2018-04-29T02:18:34.175Z,11.80
2018-04-29T02:21:02.806Z,11.74
2018-04-29T02:23:31.472Z,11.72
2018-04-29T02:26:02.947Z,11.70
2018-04-29T02:28:29.726Z,11.64
2018-04-29T02:30:58.790Z,11.62
2018-04-29T02:33:30.166Z,11.61
2018-04-29T02:36:06.197Z,11.60
2018-04-29T02:38:34.818Z,11.60
2018-04-29T02:41:03.482Z,11.59
2018-04-29T02:43:35.402Z,11.56
2018-04-29T02:46:04.626Z,11.53
2018-04-29T02:48:35.774Z,11.51
2018-04-29T02:51:04.435Z,11.49
2018-04-29T02:53:35.592Z,11.48
2018-04-29T02:56:04.227Z,11.46
2018-04-29T02:58:32.828Z,11.45
2018-04-29T03:01:01.452Z,11.43
2018-04-29T03:03:30.094Z,11.41
2018-04-29T03:05:58.721Z,11.38
2018-04-29T03:08:27.362Z,11.36
2018-04-29T03:10:56.000Z,11.33
2018-04-29T03:13:24.663Z,11.32
2018-04-29T03:15:55.603Z,11.29
2018-04-29T03:18:24.240Z,11.30
2018-04-29T03:20:52.872Z,11.28
2018-04-29T03:23:22.424Z,11.28
2018-04-29T03:25:51.032Z,11.27
2018-04-29T03:28:19.690Z,11.26
2018-04-29T03:30:48.300Z,11.28
2018-04-29T03:33:22.457Z,11.31
2018-04-29T03:35:48.263Z,11.35
2018-04-29T03:38:16.871Z,11.39
2018-04-29T03:40:45.521Z,11.44
2018-04-29T03:43:14.200Z,11.47
2018-04-29T03:45:42.851Z,11.50
2018-04-29T03:48:11.509Z,11.53
2018-04-29T03:50:40.148Z,12.40
2018-04-29T03:53:08.806Z,11.87
2018-04-29T03:55:37.434Z,11.80
2018-04-29T03:58:43.026Z,11.78
2018-04-29T04:01:51.287Z,12.67
2018-04-29T04:04:17.221Z,12.02
2018-04-29T04:06:45.863Z,11.96
2018-04-29T04:09:14.483Z,11.94
2018-04-29T04:11:43.145Z,12.77
2018-04-29T04:14:11.748Z,12.26
2018-04-29T04:16:40.391Z,12.18
2018-04-29T04:19:09.016Z,12.17
2018-04-29T04:21:37.712Z,12.17
2018-04-29T04:24:06.330Z,12.17
2018-04-29T04:26:34.973Z,12.19
2018-04-29T04:29:03.596Z,12.21
2018-04-29T04:31:32.262Z,12.23
2018-04-29T04:34:00.912Z,13.14
2018-04-29T04:36:29.536Z,12.59
2018-04-29T04:38:58.186Z,12.51
2018-04-29T04:41:27.807Z,12.48
2018-04-29T04:43:58.632Z,12.47
2018-04-29T04:46:27.272Z,12.47
2018-04-29T04:48:58.164Z,12.48
2018-04-29T04:51:26.768Z,12.47
2018-04-29T04:53:55.410Z,12.49
2018-04-29T04:56:24.030Z,12.54
2018-04-29T04:58:52.672Z,12.60
2018-04-29T05:01:21.297Z,12.63
2018-04-29T05:03:49.945Z,12.67
2018-04-29T05:06:18.612Z,12.72
2018-04-29T05:08:47.270Z,13.63
2018-04-29T05:11:18.270Z,13.89
2018-04-29T05:13:46.916Z,13.33
2018-04-29T05:16:17.584Z,13.25
2018-04-29T05:18:46.213Z,13.23
2018-04-29T05:21:14.820Z,13.23
2018-04-29T05:23:43.566Z,13.26
2018-04-29T05:26:12.200Z,13.32
2018-04-29T05:28:40.814Z,13.38
2018-04-29T05:31:09.477Z,14.33
2018-04-29T05:33:38.097Z,13.83
2018-04-29T05:36:06.773Z,13.81
2018-04-29T05:38:35.397Z,13.86
2018-04-29T05:41:04.084Z,13.86
2018-04-29T05:43:32.711Z,13.87
2018-04-29T05:46:19.282Z,13.94
2018-04-29T05:48:47.906Z,14.02
2018-04-29T05:51:16.866Z,14.13
2018-04-29T05:53:45.519Z,14.20
2018-04-29T05:56:14.648Z,14.25
2018-04-29T05:58:43.262Z,14.28
2018-04-29T06:01:11.877Z,14.30
2018-04-29T06:03:40.559Z,14.33
2018-04-29T06:06:09.211Z,14.35
2018-04-29T06:08:37.854Z,14.37
2018-04-29T06:11:06.469Z,14.37
2018-04-29T06:13:35.118Z,14.32
2018-04-29T06:16:03.734Z,14.42
2018-04-29T06:18:32.405Z,14.58
2018-04-29T06:21:01.055Z,14.73
2018-04-29T06:23:29.707Z,14.89
2018-04-29T06:25:58.911Z,15.05
2018-04-29T06:28:29.907Z,16.18
2018-04-29T06:30:58.615Z,15.57
2018-04-29T06:33:27.920Z,15.49
2018-04-29T06:35:56.783Z,15.51
2018-04-29T06:38:25.400Z,16.51
2018-04-29T06:40:54.039Z,15.88
2018-04-29T06:43:27.473Z,15.79
2018-04-29T06:45:56.131Z,15.77
2018-04-29T06:48:25.582Z,15.77
2018-04-29T06:50:54.234Z,15.86
2018-04-29T06:53:22.837Z,16.90
2018-04-29T06:55:51.809Z,16.39
2018-04-29T06:58:22.347Z,16.47
2018-04-29T07:00:59.820Z,16.64
2018-04-29T07:03:28.422Z,16.85
2018-04-29T07:05:57.048Z,17.09
2018-04-29T07:08:25.658Z,17.23
2018-04-29T07:10:54.260Z,17.39
2018-04-29T07:13:22.907Z,17.59
2018-04-29T07:15:51.527Z,17.74
2018-04-29T07:18:20.168Z,17.89
2018-04-29T07:20:48.782Z,18.05
2018-04-29T07:23:17.428Z,18.01
2018-04-29T07:25:46.037Z,18.09
2018-04-29T07:28:14.704Z,18.26
2018-04-29T07:30:43.457Z,18.44
2018-04-29T07:33:12.107Z,18.59
2018-04-29T07:35:50.848Z,18.72
2018-04-29T07:38:19.508Z,18.81
2018-04-29T07:40:48.124Z,18.94
2018-04-29T07:43:16.760Z,18.91
2018-04-29T07:45:45.376Z,19.15
2018-04-29T07:48:14.472Z,19.41
2018-04-29T07:50:43.328Z,19.67
2018-04-29T07:53:11.931Z,19.80
2018-04-29T07:55:40.790Z,19.79
2018-04-29T07:58:09.412Z,19.95
2018-04-29T08:00:39.057Z,21.19
2018-04-29T08:03:13.357Z,20.70
2018-04-29T08:05:40.514Z,20.84
2018-04-29T08:08:09.473Z,20.95
2018-04-29T08:10:38.145Z,21.13
2018-04-29T08:13:07.125Z,21.28
2018-04-29T08:15:35.810Z,21.32
2018-04-29T08:18:06.591Z,22.58
2018-04-29T08:20:33.483Z,22.99
2018-04-29T08:23:02.204Z,22.38
2018-04-29T08:25:33.392Z,23.28
2018-04-29T08:27:59.408Z,22.60
2018-04-29T08:30:28.857Z,22.60
2018-04-29T08:32:57.850Z,22.64
2018-04-29T08:35:27.186Z,22.59
2018-04-29T08:37:56.584Z,22.56
2018-04-29T08:40:28.838Z,22.53
2018-04-29T08:42:58.093Z,22.60
2018-04-29T08:45:26.793Z,22.64
2018-04-29T08:47:57.287Z,23.92
2018-04-29T08:50:25.883Z,23.16
2018-04-29T08:52:54.701Z,23.09
2018-04-29T08:55:23.288Z,23.17
2018-04-29T08:57:52.129Z,23.21
2018-04-29T09:00:21.680Z,23.37
2018-04-29T09:02:57.856Z,23.51
2018-04-29T09:05:19.930Z,24.85
2018-04-29T09:07:50.145Z,24.12
2018-04-29T09:10:29.159Z,24.08
2018-04-29T09:13:00.237Z,24.12
2018-04-29T09:15:31.405Z,24.18
2018-04-29T09:17:59.499Z,24.25
2018-04-29T09:20:28.165Z,24.19
2018-04-29T09:23:01.314Z,24.28
2018-04-29T09:25:31.962Z,24.34
2018-04-29T09:28:03.551Z,24.49
2018-04-29T09:30:33.465Z,24.65
2018-04-29T09:33:03.897Z,24.66
2018-04-29T09:35:33.021Z,24.65
2018-04-29T09:38:01.887Z,24.75
2018-04-29T09:40:32.579Z,24.88
2018-04-29T09:43:01.473Z,25.01
2018-04-29T09:45:33.173Z,25.14
2018-04-29T09:48:06.564Z,25.26
2018-04-29T09:50:35.207Z,25.24
2018-04-29T09:53:03.827Z,25.32
2018-04-29T09:55:32.447Z,25.38
2018-04-29T09:58:02.135Z,25.47
2018-04-29T10:00:31.904Z,25.59
2018-04-29T10:03:10.293Z,25.77
2018-04-29T10:05:38.992Z,25.91
2018-04-29T10:08:10.291Z,26.05
2018-04-29T10:10:38.916Z,26.06
2018-04-29T10:13:08.421Z,26.07
2018-04-29T10:15:38.338Z,26.13
2018-04-29T10:18:07.320Z,26.31
2018-04-29T10:20:35.930Z,26.41
2018-04-29T10:23:04.576Z,26.52
2018-04-29T10:25:33.378Z,26.65
2018-04-29T10:28:02.627Z,26.79
2018-04-29T10:30:32.024Z,26.92
2018-04-29T10:33:09.566Z,26.97
2018-04-29T10:35:36.614Z,26.91
2018-04-29T10:38:05.754Z,26.91
2018-04-29T10:40:37.110Z,28.14
2018-04-29T10:43:05.955Z,27.25
2018-04-29T10:45:34.594Z,27.25
2018-04-29T10:48:05.625Z,27.39
2018-04-29T10:50:34.638Z,28.75
2018-04-29T10:53:03.346Z,27.98
2018-04-29T10:55:32.307Z,27.93
2018-04-29T10:58:02.530Z,27.95
2018-04-29T11:00:31.156Z,27.96
2018-04-29T11:03:01.778Z,27.96
2018-04-29T11:05:30.413Z,29.12
2018-04-29T11:08:01.871Z,28.13
2018-04-29T11:10:31.735Z,28.00
2018-04-29T11:13:00.559Z,28.04
2018-04-29T11:15:29.218Z,28.09
2018-04-29T11:17:57.865Z,28.05
2018-04-29T11:20:26.927Z,27.98
2018-04-29T11:22:55.554Z,28.01
2018-04-29T11:25:25.321Z,28.09
2018-04-29T11:28:06.807Z,28.17
2018-04-29T11:30:42.903Z,28.20
2018-04-29T11:33:11.695Z,28.27
2018-04-29T11:35:40.398Z,28.25
2018-04-29T11:38:13.349Z,28.30
2018-04-29T11:40:42.523Z,28.52
2018-04-29T11:43:11.155Z,28.71
2018-04-29T11:45:42.556Z,30.19
2018-04-29T11:48:12.442Z,29.26
2018-04-29T11:50:41.155Z,29.10
2018-04-29T11:53:10.025Z,29.01
2018-04-29T11:55:39.209Z,28.87
2018-04-29T11:58:07.839Z,28.77
2018-04-29T12:00:40.205Z,28.76
2018-04-29T12:03:09.187Z,28.74
2018-04-29T12:05:38.464Z,28.73
2018-04-29T12:08:10.100Z,28.78
2018-04-29T12:10:38.940Z,28.68
2018-04-29T12:13:07.559Z,28.56
2018-04-29T12:15:36.264Z,28.64
2018-04-29T12:18:05.852Z,28.74
2018-04-29T12:20:34.626Z,28.74
2018-04-29T12:23:09.857Z,28.73
2018-04-29T12:28:23.492Z,28.73
2018-04-29T12:30:59.121Z,28.74
2018-04-29T12:33:45.146Z,28.41
2018-04-29T12:36:13.711Z,28.51
2018-04-29T12:38:48.556Z,28.68
2018-04-29T12:41:17.570Z,28.76
2018-04-29T12:43:46.187Z,28.84
2018-04-29T12:46:19.261Z,28.91
2018-04-29T12:48:47.912Z,28.95
2018-04-29T12:51:18.936Z,28.95
2018-04-29T12:53:47.611Z,29.05
2018-04-29T12:56:17.187Z,29.19
2018-04-29T12:58:49.941Z,29.31
2018-04-29T13:01:20.090Z,29.40
2018-04-29T13:03:49.341Z,29.50
2018-04-29T13:06:18.247Z,29.62
2018-04-29T13:08:51.464Z,29.69
2018-04-29T13:11:24.620Z,30.99
2018-04-29T13:13:57.643Z,30.11
2018-04-29T13:16:26.350Z,30.02
2018-04-29T13:18:56.393Z,30.08
2018-04-29T13:21:25.022Z,30.13
2018-04-29T13:24:02.668Z,30.18
2018-04-29T13:26:33.279Z,30.21
2018-04-29T13:29:02.037Z,30.30
2018-04-29T13:31:31.874Z,30.36
2018-04-29T13:34:04.725Z,31.60
2018-04-29T13:36:36.381Z,30.83
2018-04-29T13:39:05.518Z,31.80
2018-04-29T13:41:34.933Z,30.95
2018-04-29T13:44:05.389Z,30.87
2018-04-29T13:46:36.987Z,30.52
2018-04-29T13:49:07.134Z,30.22
2018-04-29T13:51:36.210Z,29.97
2018-04-29T13:54:06.260Z,29.89
2018-04-29T13:56:36.164Z,31.22
2018-04-29T13:59:04.719Z,30.40
2018-04-29T14:01:39.934Z,30.38
2018-04-29T14:04:09.020Z,30.50
2018-04-29T14:06:38.768Z,30.59
2018-04-29T14:09:07.377Z,30.63
2018-04-29T14:11:36.096Z,30.74
2018-04-29T14:14:04.694Z,30.86
2018-04-29T14:16:34.472Z,30.91
2018-04-29T14:19:06.962Z,31.02
2018-04-29T14:21:41.399Z,30.68
2018-04-29T14:24:11.739Z,30.45
2018-04-29T14:26:40.384Z,30.43
2018-04-29T14:29:30.229Z,31.68
2018-04-29T14:32:01.781Z,30.88
2018-04-29T14:34:35.471Z,30.72
2018-04-29T14:37:05.937Z,30.70
2018-04-29T14:39:34.594Z,30.69
2018-04-29T14:42:03.205Z,30.61
2018-04-29T14:44:33.960Z,30.60
2018-04-29T14:47:04.354Z,30.55
2018-04-29T14:49:35.395Z,30.49
2018-04-29T14:52:11.600Z,30.42
2018-04-29T14:54:40.627Z,30.38
2018-04-29T14:57:11.119Z,30.55
2018-04-29T14:59:39.741Z,30.67
2018-04-29T15:02:08.536Z,30.50
2018-04-29T15:04:37.227Z,30.33
2018-04-29T15:07:09.352Z,31.64
2018-04-29T15:09:38.171Z,32.34
2018-04-29T15:12:07.028Z,33.17
2018-04-29T15:14:35.912Z,33.90
2018-04-29T15:17:06.685Z,33.50
2018-04-29T15:19:55.219Z,33.77
2018-04-29T15:22:23.912Z,34.05
2018-04-29T15:24:52.606Z,33.97
2018-04-29T15:27:22.811Z,33.19
2018-04-29T15:29:51.874Z,32.34
2018-04-29T15:32:21.596Z,31.73
2018-04-29T15:34:53.236Z,31.66
2018-04-29T15:37:27.039Z,31.95
2018-04-29T15:39:55.673Z,32.22
2018-04-29T15:42:24.652Z,32.63
2018-04-29T15:44:53.821Z,32.85
2018-04-29T15:47:23.945Z,33.10
2018-04-29T15:49:53.190Z,33.41
2018-04-29T15:52:23.853Z,35.06
2018-04-29T15:54:53.130Z,34.23
2018-04-29T15:57:22.066Z,34.35
2018-04-29T15:59:50.651Z,34.41
2018-04-29T16:02:19.268Z,34.49
2018-04-29T16:04:47.927Z,34.70
2018-04-29T16:07:16.757Z,36.57
2018-04-29T16:09:45.369Z,35.73
2018-04-29T16:12:16.284Z,37.09
2018-04-29T16:14:44.887Z,36.17
2018-04-29T16:17:14.538Z,36.00
2018-04-29T16:19:43.175Z,35.89
2018-04-29T16:22:11.815Z,35.72
2018-04-29T16:24:41.007Z,35.74
2018-04-29T16:27:09.624Z,35.74
2018-04-29T16:29:38.271Z,35.69
2018-04-29T16:32:06.885Z,36.98
2018-04-29T16:34:40.074Z,35.74
2018-04-29T16:37:08.733Z,36.93
2018-04-29T16:39:37.601Z,35.85
2018-04-29T16:42:06.337Z,35.74
2018-04-29T16:44:34.979Z,35.61
2018-04-29T16:47:05.050Z,36.96
2018-04-29T16:49:33.970Z,35.64
2018-04-29T16:52:03.301Z,36.28
2018-04-29T16:54:31.985Z,34.55
2018-04-29T16:57:00.640Z,33.88
2018-04-29T16:59:29.306Z,33.10
2018-04-29T17:01:57.901Z,32.50
2018-04-29T17:04:29.077Z,32.14
2018-04-29T17:06:56.321Z,31.79
2018-04-29T17:09:27.191Z,31.56
2018-04-29T17:11:55.771Z,31.41
2018-04-29T17:14:41.578Z,31.44
2018-04-29T17:17:12.070Z,31.68
2018-04-29T17:19:40.694Z,32.00
2018-04-29T17:22:09.295Z,32.28
2018-04-29T17:24:37.951Z,32.43
2018-04-29T17:27:06.608Z,32.57
2018-04-29T17:29:35.227Z,32.49
2018-04-29T17:32:03.890Z,33.52
2018-04-29T17:34:32.488Z,31.68
2018-04-29T17:37:01.129Z,30.79
2018-04-29T17:39:29.729Z,30.02
2018-04-29T17:42:05.971Z,29.32
2018-04-29T17:44:34.582Z,28.72
2018-04-29T17:47:03.261Z,28.18
2018-04-29T17:49:32.826Z,27.77
2018-04-29T17:52:02.189Z,27.27
2018-04-29T17:54:33.858Z,26.77
2018-04-29T17:57:03.562Z,26.25
2018-04-29T17:59:33.127Z,25.73
2018-04-29T18:02:02.155Z,25.15
2018-04-29T18:04:30.786Z,24.64
2018-04-29T18:06:59.823Z,24.22
2018-04-29T18:09:30.463Z,23.84
2018-04-29T18:12:00.415Z,23.47
2018-04-29T18:14:31.278Z,23.13
2018-04-29T18:16:59.968Z,24.02
2018-04-29T18:19:28.569Z,22.96
2018-04-29T18:21:57.223Z,22.58
2018-04-29T18:24:26.987Z,22.33
2018-04-29T18:26:55.621Z,22.12
2018-04-29T18:29:24.208Z,21.87
2018-04-29T18:31:53.074Z,21.70
2018-04-29T18:34:21.919Z,21.56
2018-04-29T18:36:51.145Z,22.50
2018-04-29T18:39:23.400Z,21.59
2018-04-29T18:41:52.144Z,21.32
2018-04-29T18:44:21.006Z,21.19
2018-04-29T18:46:49.973Z,21.06
2018-04-29T18:49:19.071Z,20.97
2018-04-29T18:51:48.680Z,20.90
2018-04-29T18:54:18.115Z,20.79
2018-04-29T18:56:47.294Z,20.62
2018-04-29T19:02:03.695Z,20.21
2018-04-29T19:04:34.620Z,21.09
2018-04-29T19:07:03.358Z,20.31
2018-04-29T19:09:32.307Z,20.13
2018-04-29T19:12:00.906Z,20.09
2018-04-29T19:14:29.551Z,20.03
2018-04-29T19:16:58.163Z,20.00
2018-04-29T19:19:26.784Z,19.96
2018-04-29T19:21:55.392Z,19.93
2018-04-29T19:24:24.064Z,19.95
2018-04-29T19:26:52.666Z,19.95
2018-04-29T19:29:21.301Z,19.97
2018-04-29T19:31:49.926Z,19.94
2018-04-29T19:34:18.602Z,19.91
2018-04-29T19:36:52.857Z,19.90
2018-04-29T19:39:23.184Z,20.70
2018-04-29T19:41:52.506Z,20.12
2018-04-29T19:44:23.809Z,19.99
2018-04-29T19:46:52.598Z,19.91
2018-04-29T19:49:23.135Z,19.83
2018-04-29T19:51:56.228Z,19.75
2018-04-29T19:54:22.872Z,19.66
2018-04-29T19:56:51.522Z,19.58
2018-04-29T19:59:20.455Z,19.51
2018-04-29T20:01:49.139Z,20.24
2018-04-29T20:04:17.682Z,19.65
2018-04-29T20:06:46.341Z,19.51
2018-04-29T20:09:15.079Z,20.19
2018-04-29T20:11:43.773Z,19.56
2018-04-29T20:14:12.377Z,19.37
2018-04-29T20:16:40.996Z,19.25
2018-04-29T20:19:09.829Z,19.15
2018-04-29T20:21:38.453Z,19.06
2018-04-29T20:24:07.110Z,18.98
2018-04-29T20:26:37.557Z,18.91
2018-04-29T20:29:06.569Z,18.85
2018-04-29T20:31:35.858Z,19.60
2018-04-29T20:34:04.512Z,19.05
2018-04-29T20:36:33.114Z,18.92
2018-04-29T20:39:01.775Z,18.85
2018-04-29T20:41:30.416Z,18.79
2018-04-29T20:43:59.064Z,18.74
2018-04-29T20:46:27.656Z,18.70
2018-04-29T20:48:56.282Z,18.67
2018-04-29T20:51:24.888Z,18.64
2018-04-29T20:53:53.524Z,18.63
2018-04-29T20:56:22.121Z,18.60
2018-04-29T20:58:50.753Z,18.61
2018-04-29T21:01:19.338Z,19.34
2018-04-29T21:03:47.973Z,18.87
2018-04-29T21:06:16.652Z,18.78
2018-04-29T21:08:45.282Z,18.72
2018-04-29T21:11:13.881Z,18.69
2018-04-29T21:13:42.554Z,18.70
2018-04-29T21:16:11.123Z,18.66
2018-04-29T21:18:39.730Z,18.63
2018-04-29T21:21:08.353Z,18.61
2018-04-29T21:23:36.941Z,18.55
2018-04-29T21:26:06.670Z,18.53
2018-04-29T21:28:35.318Z,18.49
2018-04-29T21:31:04.222Z,18.44
2018-04-29T21:33:32.821Z,18.40
2018-04-29T21:36:03.439Z,18.36
2018-04-29T21:38:32.063Z,18.34
2018-04-29T21:41:02.709Z,18.33
2018-04-29T21:43:31.309Z,18.31
2018-04-29T21:46:00.912Z,18.28
2018-04-29T21:48:29.758Z,18.27
2018-04-29T21:50:58.396Z,18.24
2018-04-29T21:53:28.465Z,18.22
2018-04-29T21:55:57.123Z,18.19
2018-04-29T22:01:26.239Z,18.17
2018-04-29T22:03:57.150Z,18.92
2018-04-29T22:06:38.559Z,18.43
2018-04-29T22:09:11.399Z,18.36
2018-04-29T22:17:24.124Z,18.26
2018-04-29T22:19:53.069Z,18.96
2018-04-29T22:22:22.064Z,18.48
2018-04-29T22:24:50.660Z,18.37
2018-04-29T22:27:19.294Z,18.29
2018-04-29T22:29:47.902Z,18.26
2018-04-29T22:32:16.584Z,18.20
2018-04-29T22:34:45.135Z,18.17
2018-04-29T22:37:13.853Z,18.83
2018-04-29T22:39:42.372Z,19.00
2018-04-29T22:42:11.000Z,18.45
2018-04-29T22:44:39.632Z,18.32
2018-04-29T22:47:08.221Z,18.23
2018-04-29T22:49:36.853Z,18.15
2018-04-29T22:52:05.439Z,18.09
2018-04-29T22:54:34.074Z,18.05
2018-04-29T22:57:02.690Z,18.00
2018-04-29T22:59:31.319Z,17.97
2018-04-29T23:01:59.914Z,18.66
2018-04-29T23:04:28.570Z,18.15
2018-04-29T23:06:57.172Z,18.72
2018-04-29T23:09:25.803Z,18.18
2018-04-29T23:11:54.416Z,18.04
2018-04-29T23:14:25.720Z,18.67
2018-04-29T23:16:51.700Z,18.78
2018-04-29T23:19:20.285Z,18.22
2018-04-29T23:21:48.879Z,18.07
2018-04-29T23:24:17.516Z,17.99
2018-04-29T23:26:46.109Z,17.91
2018-04-29T23:29:14.750Z,18.55
2018-04-29T23:31:43.350Z,18.67
2018-04-29T23:34:11.984Z,18.09
2018-04-29T23:36:40.629Z,17.93
2018-04-29T23:39:09.226Z,17.83
2018-04-29T23:41:37.872Z,17.76
2018-04-29T23:44:06.503Z,17.69
2018-04-29T23:46:35.161Z,17.64
2018-04-29T23:49:03.781Z,18.32
2018-04-29T23:51:32.447Z,17.80
2018-04-29T23:54:03.311Z,17.67
2018-04-29T23:56:31.963Z,17.60
2018-04-29T23:59:00.569Z,17.56
